createdAt,value
2023-03-24T00:00:04.225Z,0.00
2023-03-24T00:01:04.217Z,0.00
2023-03-24T00:02:04.267Z,0.00
2023-03-24T00:03:04.256Z,0.00
2023-03-24T00:04:04.177Z,0.00
2023-03-24T00:05:04.115Z,0.00
2023-03-24T00:06:04.095Z,0.00
2023-03-24T00:07:04.072Z,0.00
2023-03-24T00:08:04.655Z,0.00
2023-03-24T00:09:04.032Z,0.00
2023-03-24T00:10:04.012Z,0.00
2023-03-24T00:11:03.996Z,0.00
2023-03-24T00:12:03.959Z,0.00
2023-03-24T00:13:03.961Z,0.00
2023-03-24T00:14:03.909Z,0.00
2023-03-24T00:15:03.909Z,0.00
2023-03-24T00:16:03.911Z,0.00
2023-03-24T00:17:03.856Z,0.00
2023-03-24T00:18:03.857Z,0.00
2023-03-24T00:19:03.834Z,0.00
2023-03-24T00:20:03.809Z,0.00
2023-03-24T00:21:03.771Z,0.00
2023-03-24T00:22:03.767Z,0.00
2023-03-24T00:23:03.721Z,0.00
2023-03-24T00:24:03.707Z,0.00
2023-03-24T00:25:03.677Z,0.00
2023-03-24T00:26:03.649Z,0.00
2023-03-24T00:27:03.687Z,0.00
2023-03-24T00:28:03.599Z,0.00
2023-03-24T00:29:03.587Z,0.00
2023-03-24T00:30:03.556Z,0.00
2023-03-24T00:31:03.562Z,0.00
2023-03-24T00:32:03.519Z,0.00
2023-03-24T00:33:03.507Z,0.00
2023-03-24T00:34:03.478Z,0.00
2023-03-24T00:35:03.452Z,0.00
2023-03-24T00:36:03.454Z,0.00
2023-03-24T00:37:03.423Z,0.00
2023-03-24T00:38:03.387Z,0.00
2023-03-24T00:39:03.401Z,0.00
2023-03-24T00:40:03.340Z,0.00
2023-03-24T00:41:03.318Z,0.00
2023-03-24T00:42:03.291Z,0.00
2023-03-24T00:43:03.275Z,0.00
2023-03-24T00:44:03.272Z,0.00
2023-03-24T00:45:03.232Z,0.00
2023-03-24T00:46:03.196Z,0.00
2023-03-24T00:47:03.223Z,0.00
2023-03-24T00:48:03.195Z,0.00
2023-03-24T00:49:03.146Z,0.00
2023-03-24T00:50:03.103Z,0.00
2023-03-24T00:51:03.114Z,0.00
2023-03-24T00:52:03.063Z,0.00
2023-03-24T00:53:03.064Z,0.00
2023-03-24T00:54:03.037Z,0.00
2023-03-24T00:55:03.003Z,0.00
2023-03-24T00:56:02.965Z,0.00
2023-03-24T00:57:03.997Z,0.00
2023-03-24T00:58:02.955Z,0.00
2023-03-24T00:59:02.913Z,0.00
2023-03-24T01:00:02.884Z,0.00
2023-03-24T01:01:02.942Z,0.00
2023-03-24T01:02:02.960Z,0.00
2023-03-24T01:03:02.893Z,0.00
2023-03-24T01:04:02.793Z,0.00
2023-03-24T01:05:02.780Z,0.00
2023-03-24T01:06:03.996Z,0.00
2023-03-24T01:07:02.720Z,0.00
2023-03-24T01:08:02.817Z,0.00
2023-03-24T01:09:02.690Z,0.00
2023-03-24T01:10:02.659Z,0.00
2023-03-24T01:11:02.630Z,0.00
2023-03-24T01:12:02.614Z,0.00
2023-03-24T01:13:02.583Z,0.00
2023-03-24T01:14:02.558Z,0.00
2023-03-24T01:15:02.550Z,0.00
2023-03-24T01:16:02.549Z,0.00
2023-03-24T01:17:02.497Z,0.00
2023-03-24T01:18:02.592Z,0.00
2023-03-24T01:19:02.447Z,0.00
2023-03-24T01:20:02.432Z,0.00
2023-03-24T01:21:02.392Z,0.00
2023-03-24T01:22:02.386Z,0.00
2023-03-24T01:23:02.362Z,0.00
2023-03-24T01:24:02.329Z,0.00
2023-03-24T01:25:02.337Z,0.00
2023-03-24T01:26:02.276Z,0.00
2023-03-24T01:27:02.254Z,0.00
2023-03-24T01:28:02.228Z,0.00
2023-03-24T01:29:02.222Z,0.00
2023-03-24T01:30:02.187Z,0.00
2023-03-24T01:31:02.184Z,0.00
2023-03-24T01:32:02.198Z,0.00
2023-03-24T01:33:02.171Z,0.00
2023-03-24T01:34:02.131Z,0.00
2023-03-24T01:35:02.115Z,0.00
2023-03-24T01:36:02.095Z,0.00
2023-03-24T01:37:02.033Z,0.00
2023-03-24T01:38:02.016Z,0.00
2023-03-24T01:39:01.993Z,0.00
2023-03-24T01:40:01.957Z,0.00
2023-03-24T01:41:01.941Z,0.00
2023-03-24T01:42:01.932Z,0.00
2023-03-24T01:43:01.900Z,0.00
2023-03-24T01:44:01.874Z,0.00
2023-03-24T01:45:01.901Z,0.00
2023-03-24T01:46:01.854Z,0.00
2023-03-24T01:47:01.798Z,0.00
2023-03-24T01:48:01.820Z,0.00
2023-03-24T01:49:01.763Z,0.00
2023-03-24T01:50:01.725Z,0.00
2023-03-24T01:51:01.704Z,0.00
2023-03-24T01:52:01.686Z,0.00
2023-03-24T01:53:01.684Z,0.00
2023-03-24T01:54:01.648Z,0.00
2023-03-24T01:55:01.627Z,0.00
2023-03-24T01:56:01.594Z,0.00
2023-03-24T01:57:01.635Z,0.00
2023-03-24T01:58:01.540Z,0.00
2023-03-24T01:59:01.533Z,0.00
2023-03-24T02:00:01.506Z,0.00
2023-03-24T02:01:01.496Z,0.00
2023-03-24T02:02:01.456Z,0.00
2023-03-24T02:03:01.473Z,0.00
2023-03-24T02:04:01.471Z,0.00
2023-03-24T02:05:01.386Z,0.00
2023-03-24T02:06:01.364Z,0.00
2023-03-24T02:07:01.338Z,0.00
2023-03-24T02:08:01.329Z,0.00
2023-03-24T02:09:01.360Z,0.00
2023-03-24T02:10:01.268Z,0.00
2023-03-24T02:11:01.252Z,0.00
2023-03-24T02:12:01.233Z,0.00
2023-03-24T02:13:01.203Z,0.00
2023-03-24T02:14:01.171Z,0.00
2023-03-24T02:15:01.168Z,0.00
2023-03-24T02:16:01.235Z,0.00
2023-03-24T02:17:01.113Z,0.00
2023-03-24T02:18:01.151Z,0.00
2023-03-24T02:19:01.169Z,0.00
2023-03-24T02:20:01.044Z,0.00
2023-03-24T02:21:01.024Z,0.00
2023-03-24T02:22:01.015Z,0.00
2023-03-24T02:23:00.988Z,0.00
2023-03-24T02:24:00.953Z,0.00
2023-03-24T02:25:00.954Z,0.00
2023-03-24T02:26:00.947Z,0.00
2023-03-24T02:27:00.883Z,0.00
2023-03-24T02:28:00.878Z,0.00
2023-03-24T02:29:00.916Z,0.00
2023-03-24T02:30:00.832Z,0.00
2023-03-24T02:31:00.887Z,0.00
2023-03-24T02:32:00.823Z,0.00
2023-03-24T02:33:00.793Z,0.00
2023-03-24T02:34:00.726Z,0.00
2023-03-24T02:35:00.716Z,0.00
2023-03-24T02:36:00.683Z,0.00
2023-03-24T02:37:00.711Z,0.00
2023-03-24T02:38:00.635Z,0.00
2023-03-24T02:39:00.616Z,0.00
2023-03-24T02:40:00.598Z,0.00
2023-03-24T02:41:00.569Z,0.00
2023-03-24T02:42:00.613Z,0.00
2023-03-24T02:43:00.522Z,0.00
2023-03-24T02:44:00.507Z,0.00
2023-03-24T02:45:00.492Z,0.00
2023-03-24T02:46:00.487Z,0.00
2023-03-24T02:47:00.433Z,0.00
2023-03-24T02:48:00.455Z,0.00
2023-03-24T02:49:00.387Z,0.00
2023-03-24T02:50:00.365Z,0.00
2023-03-24T02:51:00.422Z,0.00
2023-03-24T02:52:00.312Z,0.00
2023-03-24T02:53:00.290Z,0.00
2023-03-24T02:54:00.263Z,0.00
2023-03-24T02:55:00.246Z,0.00
2023-03-24T02:56:00.268Z,0.00
2023-03-24T02:57:00.218Z,0.00
2023-03-24T02:58:00.185Z,0.00
2023-03-24T02:59:00.170Z,0.00
2023-03-24T03:00:00.150Z,0.00
2023-03-24T03:01:00.165Z,0.00
2023-03-24T03:02:00.102Z,0.00
2023-03-24T03:03:00.160Z,0.00
2023-03-24T03:04:00.073Z,0.00
2023-03-24T03:05:00.030Z,0.00
2023-03-24T03:06:00.005Z,0.00
2023-03-24T03:06:59.986Z,0.00
2023-03-24T03:07:59.947Z,0.00
2023-03-24T03:08:59.934Z,0.00
2023-03-24T03:09:59.901Z,0.00
2023-03-24T03:10:59.874Z,0.00
2023-03-24T03:11:59.851Z,0.00
2023-03-24T03:12:59.818Z,0.00
2023-03-24T03:13:59.820Z,0.00
2023-03-24T03:14:59.816Z,0.00
2023-03-24T03:15:59.817Z,0.00
2023-03-24T03:16:59.735Z,0.00
2023-03-24T03:17:59.745Z,0.00
2023-03-24T03:18:59.695Z,0.00
2023-03-24T03:19:59.671Z,0.00
2023-03-24T03:20:59.680Z,0.00
2023-03-24T03:21:59.634Z,0.00
2023-03-24T03:22:59.609Z,0.00
2023-03-24T03:23:59.589Z,0.00
2023-03-24T03:24:59.563Z,0.00
2023-03-24T03:25:59.541Z,0.00
2023-03-24T03:26:59.514Z,0.00
2023-03-24T03:27:59.493Z,0.00
2023-03-24T03:28:59.477Z,0.00
2023-03-24T03:29:59.450Z,0.00
2023-03-24T03:30:59.460Z,0.00
2023-03-24T03:31:59.494Z,0.00
2023-03-24T03:32:59.489Z,0.00
2023-03-24T03:33:59.405Z,0.00
2023-03-24T03:34:59.343Z,0.00
2023-03-24T03:35:59.454Z,0.00
2023-03-24T03:36:59.296Z,0.00
2023-03-24T03:37:59.327Z,0.00
2023-03-24T03:38:59.406Z,0.00
2023-03-24T03:39:59.310Z,0.00
2023-03-24T03:40:59.318Z,0.00
2023-03-24T03:41:59.206Z,0.00
2023-03-24T03:42:59.234Z,0.00
2023-03-24T03:43:59.162Z,0.00
2023-03-24T03:44:59.168Z,0.00
2023-03-24T03:45:59.175Z,0.00
2023-03-24T03:46:59.244Z,0.00
2023-03-24T03:47:59.445Z,0.00
2023-03-24T03:48:59.043Z,0.00
2023-03-24T03:49:59.252Z,0.00
2023-03-24T03:51:59.234Z,0.00
2023-03-24T03:52:58.941Z,0.00
2023-03-24T03:53:58.921Z,0.00
2023-03-24T03:54:58.883Z,0.00
2023-03-24T03:55:58.867Z,0.00
2023-03-24T03:56:58.859Z,0.00
2023-03-24T03:57:58.835Z,0.00
2023-03-24T03:58:58.823Z,0.00
2023-03-24T03:59:58.796Z,0.00
2023-03-24T04:00:58.835Z,0.00
2023-03-24T04:01:58.840Z,0.00
2023-03-24T04:02:58.788Z,0.00
2023-03-24T04:03:58.889Z,0.00
2023-03-24T04:05:06.003Z,0.00
2023-03-24T04:05:58.653Z,0.00
2023-03-24T04:06:58.631Z,0.00
2023-03-24T04:07:58.629Z,0.00
2023-03-24T04:08:58.583Z,0.00
2023-03-24T04:09:58.567Z,0.00
2023-03-24T04:10:58.549Z,0.00
2023-03-24T04:11:58.539Z,0.00
2023-03-24T04:12:58.504Z,0.00
2023-03-24T04:13:58.490Z,0.00
2023-03-24T04:14:58.479Z,0.00
2023-03-24T04:15:58.455Z,0.00
2023-03-24T04:16:58.440Z,0.00
2023-03-24T04:17:58.426Z,0.00
2023-03-24T04:18:58.442Z,0.00
2023-03-24T04:19:58.648Z,0.00
2023-03-24T04:20:58.373Z,0.00
2023-03-24T04:21:58.328Z,0.00
2023-03-24T04:22:58.316Z,0.00
2023-03-24T04:23:58.303Z,0.00
2023-03-24T04:24:58.281Z,0.00
2023-03-24T04:25:58.239Z,0.00
2023-03-24T04:26:58.215Z,0.00
2023-03-24T04:27:58.196Z,0.00
2023-03-24T04:28:58.239Z,0.00
2023-03-24T04:29:58.164Z,0.00
2023-03-24T04:30:58.138Z,0.00
2023-03-24T04:31:58.114Z,0.00
2023-03-24T04:32:58.115Z,0.00
2023-03-24T04:33:58.079Z,0.00
2023-03-24T04:34:58.054Z,0.00
2023-03-24T04:35:58.102Z,0.00
2023-03-24T04:36:58.005Z,0.00
2023-03-24T04:37:57.992Z,0.00
2023-03-24T04:38:57.986Z,0.00
2023-03-24T04:39:57.946Z,0.00
2023-03-24T04:40:57.943Z,0.00
2023-03-24T04:41:57.979Z,0.00
2023-03-24T04:42:57.923Z,0.00
2023-03-24T04:43:57.933Z,0.00
2023-03-24T04:44:57.875Z,0.00
2023-03-24T04:45:58.191Z,0.00
2023-03-24T04:46:57.848Z,0.00
2023-03-24T04:47:57.822Z,0.00
2023-03-24T04:48:57.776Z,0.00
2023-03-24T04:49:57.750Z,0.00
2023-03-24T04:50:57.805Z,0.00
2023-03-24T04:51:57.710Z,0.00
2023-03-24T04:52:57.680Z,0.00
2023-03-24T04:53:57.670Z,0.00
2023-03-24T04:54:57.677Z,0.00
2023-03-24T04:55:57.631Z,0.00
2023-03-24T04:56:57.650Z,0.00
2023-03-24T04:57:57.578Z,0.00
2023-03-24T04:58:57.551Z,0.00
2023-03-24T04:59:57.537Z,0.00
2023-03-24T05:00:57.542Z,0.00
2023-03-24T05:01:57.488Z,4.00
2023-03-24T05:02:57.464Z,4.00
2023-03-24T05:03:57.481Z,8.00
2023-03-24T05:04:57.420Z,4.00
2023-03-24T05:05:57.395Z,8.00
2023-03-24T05:06:57.381Z,8.00
2023-03-24T05:07:57.372Z,12.00
2023-03-24T05:08:57.347Z,12.00
2023-03-24T05:09:57.314Z,12.00
2023-03-24T05:10:57.283Z,12.00
2023-03-24T05:11:57.624Z,12.00
2023-03-24T05:12:57.255Z,12.00
2023-03-24T05:13:57.222Z,12.00
2023-03-24T05:14:57.211Z,12.00
2023-03-24T05:15:57.175Z,16.00
2023-03-24T05:16:57.148Z,16.00
2023-03-24T05:17:57.237Z,20.00
2023-03-24T05:18:57.133Z,20.00
2023-03-24T05:19:57.089Z,24.00
2023-03-24T05:20:57.089Z,28.00
2023-03-24T05:21:57.060Z,28.00
2023-03-24T05:22:57.020Z,28.00
2023-03-24T05:23:56.995Z,32.00
2023-03-24T05:24:56.985Z,32.00
2023-03-24T05:25:56.960Z,32.00
2023-03-24T05:26:56.921Z,40.00
2023-03-24T05:27:56.970Z,44.00
2023-03-24T05:28:56.902Z,48.00
2023-03-24T05:29:56.859Z,60.00
2023-03-24T05:30:56.852Z,68.00
2023-03-24T05:31:56.809Z,80.00
2023-03-24T05:32:56.836Z,96.00
2023-03-24T05:33:56.791Z,112.00
2023-03-24T05:34:56.753Z,132.00
2023-03-24T05:35:56.757Z,156.00
2023-03-24T05:36:56.698Z,184.00
2023-03-24T05:37:56.680Z,220.00
2023-03-24T05:38:56.664Z,264.00
2023-03-24T05:39:56.653Z,312.00
2023-03-24T05:40:56.600Z,312.00
2023-03-24T05:41:56.584Z,280.00
2023-03-24T05:42:56.565Z,276.00
2023-03-24T05:43:56.559Z,296.00
2023-03-24T05:44:56.525Z,344.00
2023-03-24T05:45:56.534Z,440.00
2023-03-24T05:46:56.469Z,576.00
2023-03-24T05:47:56.535Z,744.00
2023-03-24T05:48:56.429Z,836.00
2023-03-24T05:49:56.429Z,852.00
2023-03-24T05:50:56.371Z,908.00
2023-03-24T05:51:56.361Z,956.00
2023-03-24T05:52:56.334Z,964.00
2023-03-24T05:53:56.320Z,968.00
2023-03-24T05:54:56.316Z,860.00
2023-03-24T05:55:56.285Z,756.00
2023-03-24T05:56:56.265Z,748.00
2023-03-24T05:57:56.224Z,732.00
2023-03-24T05:58:56.201Z,736.00
2023-03-24T05:59:56.180Z,760.00
2023-03-24T06:00:56.145Z,820.00
2023-03-24T06:01:56.144Z,928.00
2023-03-24T06:02:56.156Z,996.00
2023-03-24T06:03:56.167Z,1044.00
2023-03-24T06:04:56.063Z,1044.00
2023-03-24T06:05:56.042Z,1020.00
2023-03-24T06:06:56.016Z,1044.00
2023-03-24T06:07:55.995Z,1156.00
2023-03-24T06:08:55.975Z,1336.00
2023-03-24T06:09:55.961Z,1484.00
2023-03-24T06:10:55.916Z,1556.00
2023-03-24T06:11:55.903Z,1428.00
2023-03-24T06:12:55.952Z,1392.00
2023-03-24T06:13:55.856Z,1668.00
2023-03-24T06:14:55.831Z,2356.00
2023-03-24T06:15:55.813Z,2956.00
2023-03-24T06:16:55.797Z,3196.00
2023-03-24T06:17:55.824Z,3132.00
2023-03-24T06:18:55.742Z,3180.00
2023-03-24T06:19:55.724Z,3108.00
2023-03-24T06:20:55.691Z,2936.00
2023-03-24T06:21:55.674Z,2864.00
2023-03-24T06:22:55.650Z,2820.00
2023-03-24T06:23:55.625Z,2944.00
2023-03-24T06:24:55.630Z,3156.00
2023-03-24T06:25:55.596Z,3276.00
2023-03-24T06:26:55.559Z,3244.00
2023-03-24T06:27:55.566Z,3148.00
2023-03-24T06:28:55.511Z,2900.00
2023-03-24T06:29:55.493Z,2672.00
2023-03-24T06:30:55.493Z,3272.00
2023-03-24T06:31:55.448Z,3216.00
2023-03-24T06:32:55.460Z,2908.00
2023-03-24T06:33:55.403Z,2568.00
2023-03-24T06:34:55.396Z,2404.00
2023-03-24T06:35:55.423Z,2060.00
2023-03-24T06:36:56.102Z,1668.00
2023-03-24T06:37:55.326Z,1604.00
2023-03-24T06:38:55.350Z,1612.00
2023-03-24T06:39:55.273Z,1832.00
2023-03-24T06:40:55.259Z,2044.00
2023-03-24T06:41:55.225Z,2532.00
2023-03-24T06:42:55.203Z,3072.00
2023-03-24T06:43:55.198Z,3496.00
2023-03-24T06:44:55.166Z,3100.00
2023-03-24T06:45:55.141Z,3432.00
2023-03-24T06:46:55.155Z,3828.00
2023-03-24T06:47:55.180Z,3740.00
2023-03-24T06:48:55.079Z,3532.00
2023-03-24T06:49:56.089Z,3360.00
2023-03-24T06:50:55.034Z,2448.00
2023-03-24T06:51:55.003Z,2556.00
2023-03-24T06:52:54.986Z,3156.00
2023-03-24T06:53:54.977Z,3708.00
2023-03-24T06:54:54.988Z,3660.00
2023-03-24T06:55:54.920Z,3756.00
2023-03-24T06:56:54.992Z,3392.00
2023-03-24T06:57:54.867Z,3868.00
2023-03-24T06:58:54.849Z,4392.00
2023-03-24T06:59:54.837Z,3868.00
2023-03-24T07:00:54.803Z,3112.00
2023-03-24T07:01:54.807Z,3308.00
2023-03-24T07:02:54.804Z,3464.00
2023-03-24T07:03:54.787Z,2708.00
2023-03-24T07:04:54.741Z,2676.00
2023-03-24T07:05:54.692Z,2896.00
2023-03-24T07:07:08.647Z,2260.00
2023-03-24T07:08:24.124Z,2688.00
2023-03-24T07:08:54.621Z,3000.00
2023-03-24T07:09:54.815Z,2808.00
2023-03-24T07:10:54.588Z,2392.00
2023-03-24T07:11:54.580Z,3188.00
2023-03-24T07:12:54.534Z,3344.00
2023-03-24T07:13:54.520Z,2992.00
2023-03-24T07:14:54.520Z,3132.00
2023-03-24T07:15:54.545Z,3164.00
2023-03-24T07:16:54.453Z,2852.00
2023-03-24T07:17:54.460Z,3668.00
2023-03-24T07:18:54.406Z,4352.00
2023-03-24T07:19:54.385Z,3196.00
2023-03-24T07:20:54.363Z,2456.00
2023-03-24T07:21:54.344Z,3052.00
2023-03-24T07:22:54.330Z,3940.00
2023-03-24T07:23:54.302Z,3684.00
2023-03-24T07:24:54.515Z,3552.00
2023-03-24T07:25:54.246Z,3616.00
2023-03-24T07:26:54.244Z,4472.00
2023-03-24T07:27:54.206Z,4660.00
2023-03-24T07:28:54.258Z,4312.00
2023-03-24T07:29:54.165Z,4764.00
2023-03-24T07:30:55.467Z,5392.00
2023-03-24T07:31:54.181Z,4336.00
2023-03-24T07:32:54.212Z,3548.00
2023-03-24T07:33:54.095Z,3972.00
2023-03-24T07:34:54.063Z,4088.00
2023-03-24T07:35:54.072Z,3800.00
2023-03-24T07:36:54.022Z,3280.00
2023-03-24T07:37:53.998Z,3352.00
2023-03-24T07:38:53.973Z,4488.00
2023-03-24T07:39:53.955Z,5320.00
2023-03-24T07:40:54.055Z,4824.00
2023-03-24T07:41:53.921Z,6964.00
2023-03-24T07:42:53.892Z,7564.00
2023-03-24T07:43:53.857Z,6400.00
2023-03-24T07:44:53.845Z,5588.00
2023-03-24T07:45:53.849Z,6196.00
2023-03-24T07:46:53.810Z,5200.00
2023-03-24T07:47:53.831Z,4876.00
2023-03-24T07:48:53.765Z,5112.00
2023-03-24T07:49:53.737Z,4224.00
2023-03-24T07:50:53.716Z,4296.00
2023-03-24T07:51:53.690Z,4804.00
2023-03-24T07:52:53.768Z,6144.00
2023-03-24T07:53:53.643Z,6420.00
2023-03-24T07:54:53.693Z,6448.00
2023-03-24T07:55:53.613Z,5560.00
2023-03-24T07:56:53.610Z,4596.00
2023-03-24T07:57:53.564Z,4412.00
2023-03-24T07:58:53.571Z,3644.00
2023-03-24T07:59:53.516Z,3284.00
2023-03-24T08:00:53.504Z,4356.00
2023-03-24T08:01:56.714Z,4828.00
2023-03-24T08:02:53.798Z,6452.00
2023-03-24T08:03:53.719Z,7112.00
2023-03-24T08:04:53.415Z,5748.00
2023-03-24T08:05:53.655Z,5244.00
2023-03-24T08:06:53.404Z,4352.00
2023-03-24T08:07:53.494Z,3432.00
2023-03-24T08:08:53.326Z,2868.00
2023-03-24T08:09:53.301Z,3660.00
2023-03-24T08:10:53.281Z,6172.00
2023-03-24T08:11:53.278Z,6272.00
2023-03-24T08:12:53.248Z,5816.00
2023-03-24T08:13:53.220Z,6364.00
2023-03-24T08:14:53.438Z,5520.00
2023-03-24T08:15:53.195Z,5328.00
2023-03-24T08:16:53.255Z,4248.00
2023-03-24T08:17:53.186Z,4496.00
2023-03-24T08:18:53.125Z,4696.00
2023-03-24T08:19:59.700Z,6584.00
2023-03-24T08:20:53.070Z,7600.00
2023-03-24T08:21:53.041Z,5960.00
2023-03-24T08:22:53.027Z,5744.00
2023-03-24T08:23:52.997Z,4836.00
2023-03-24T08:24:52.993Z,5244.00
2023-03-24T08:25:52.975Z,6260.00
2023-03-24T08:26:52.938Z,6856.00
2023-03-24T08:27:52.953Z,6300.00
2023-03-24T08:28:52.912Z,5544.00
2023-03-24T08:29:52.876Z,6148.00
2023-03-24T08:30:52.900Z,7672.00
2023-03-24T08:31:52.842Z,7708.00
2023-03-24T08:32:52.974Z,8104.00
2023-03-24T08:33:52.792Z,6396.00
2023-03-24T08:34:52.760Z,7968.00
2023-03-24T08:35:52.902Z,7212.00
2023-03-24T08:36:52.722Z,4264.00
2023-03-24T08:37:52.741Z,3232.00
2023-03-24T08:38:52.683Z,3156.00
2023-03-24T08:39:52.661Z,2864.00
2023-03-24T08:40:52.658Z,2456.00
2023-03-24T08:41:52.639Z,2396.00
2023-03-24T08:42:52.616Z,2824.00
2023-03-24T08:43:52.571Z,3360.00
2023-03-24T08:44:52.556Z,3020.00
2023-03-24T08:45:52.555Z,3128.00
2023-03-24T08:46:52.617Z,2996.00
2023-03-24T08:47:52.526Z,2448.00
2023-03-24T08:48:52.461Z,2852.00
2023-03-24T08:49:52.434Z,3232.00
2023-03-24T08:50:52.421Z,5072.00
2023-03-24T08:51:52.472Z,7940.00
2023-03-24T08:52:52.375Z,8836.00
2023-03-24T08:53:52.350Z,8528.00
2023-03-24T08:54:52.335Z,8228.00
2023-03-24T08:55:52.325Z,7296.00
2023-03-24T08:56:52.367Z,7836.00
2023-03-24T08:57:52.262Z,13312.00
2023-03-24T08:58:52.237Z,11716.00
2023-03-24T08:59:52.229Z,9684.00
2023-03-24T09:00:52.198Z,7456.00
2023-03-24T09:01:52.204Z,6108.00
2023-03-24T09:02:52.188Z,4392.00
2023-03-24T09:03:52.149Z,3924.00
2023-03-24T09:04:52.131Z,4968.00
2023-03-24T09:05:52.091Z,4272.00
2023-03-24T09:06:52.076Z,4764.00
2023-03-24T09:07:52.065Z,3816.00
2023-03-24T09:08:52.031Z,4200.00
2023-03-24T09:09:52.010Z,4236.00
2023-03-24T09:10:51.985Z,5848.00
2023-03-24T09:11:51.963Z,7248.00
2023-03-24T09:12:51.954Z,9332.00
2023-03-24T09:13:51.930Z,8216.00
2023-03-24T09:14:51.939Z,5568.00
2023-03-24T09:15:52.331Z,5580.00
2023-03-24T09:16:51.870Z,5144.00
2023-03-24T09:17:51.869Z,6880.00
2023-03-24T09:18:51.825Z,8428.00
2023-03-24T09:19:51.800Z,7476.00
2023-03-24T09:20:52.024Z,5696.00
2023-03-24T09:21:51.762Z,3660.00
2023-03-24T09:22:51.734Z,3840.00
2023-03-24T09:23:51.718Z,3264.00
2023-03-24T09:24:51.718Z,2608.00
2023-03-24T09:25:51.666Z,3196.00
2023-03-24T09:26:51.659Z,5072.00
2023-03-24T09:27:51.620Z,5632.00
2023-03-24T09:28:51.627Z,6540.00
2023-03-24T09:29:51.580Z,9604.00
2023-03-24T09:30:51.763Z,9492.00
2023-03-24T09:31:51.572Z,8716.00
2023-03-24T09:32:51.529Z,9320.00
2023-03-24T09:33:51.496Z,8288.00
2023-03-24T09:34:51.477Z,10248.00
2023-03-24T09:35:51.487Z,8944.00
2023-03-24T09:36:51.438Z,5164.00
2023-03-24T09:37:51.402Z,4208.00
2023-03-24T09:38:51.405Z,4388.00
2023-03-24T09:39:51.374Z,5352.00
2023-03-24T09:40:51.342Z,5412.00
2023-03-24T09:41:51.324Z,6360.00
2023-03-24T09:42:51.356Z,8176.00
2023-03-24T09:43:51.274Z,8908.00
2023-03-24T09:44:51.264Z,7520.00
2023-03-24T09:45:51.244Z,5912.00
2023-03-24T09:46:51.325Z,6108.00
2023-03-24T09:47:51.237Z,5072.00
2023-03-24T09:48:51.192Z,5864.00
2023-03-24T09:49:51.153Z,7324.00
2023-03-24T09:50:51.150Z,7016.00
2023-03-24T09:51:51.127Z,5204.00
2023-03-24T09:52:51.096Z,3916.00
2023-03-24T09:53:51.070Z,4016.00
2023-03-24T09:54:51.054Z,6256.00
2023-03-24T09:55:51.123Z,7748.00
2023-03-24T09:56:51.956Z,7028.00
2023-03-24T09:57:50.983Z,6144.00
2023-03-24T09:58:50.990Z,6288.00
2023-03-24T09:59:50.928Z,5756.00
2023-03-24T10:00:51.251Z,5728.00
2023-03-24T10:01:50.891Z,4804.00
2023-03-24T10:02:52.494Z,4608.00
2023-03-24T10:03:51.053Z,6488.00
2023-03-24T10:04:50.829Z,5960.00
2023-03-24T10:05:50.853Z,7928.00
2023-03-24T10:06:50.792Z,7388.00
2023-03-24T10:07:50.759Z,9012.00
2023-03-24T10:08:50.753Z,9252.00
2023-03-24T10:09:50.735Z,9692.00
2023-03-24T10:10:50.725Z,10260.00
2023-03-24T10:11:50.688Z,10524.00
2023-03-24T10:12:50.661Z,11616.00
2023-03-24T10:13:50.636Z,13072.00
2023-03-24T10:14:50.617Z,13560.00
2023-03-24T10:15:50.760Z,11976.00
2023-03-24T10:16:50.607Z,12620.00
2023-03-24T10:17:50.558Z,11060.00
2023-03-24T10:18:50.532Z,8644.00
2023-03-24T10:19:50.528Z,7780.00
2023-03-24T10:20:50.500Z,6624.00
2023-03-24T10:21:50.484Z,4896.00
2023-03-24T10:22:50.449Z,4312.00
2023-03-24T10:23:50.428Z,5048.00
2023-03-24T10:24:50.413Z,7100.00
2023-03-24T10:25:50.564Z,10980.00
2023-03-24T10:26:50.370Z,13304.00
2023-03-24T10:27:50.489Z,13084.00
2023-03-24T10:28:50.352Z,9148.00
2023-03-24T10:29:50.299Z,8956.00
2023-03-24T10:30:50.279Z,9320.00
2023-03-24T10:31:50.318Z,9436.00
2023-03-24T10:32:50.274Z,9012.00
2023-03-24T10:33:50.218Z,8308.00
2023-03-24T10:34:50.198Z,7048.00
2023-03-24T10:35:50.494Z,6900.00
2023-03-24T10:36:50.154Z,5868.00
2023-03-24T10:37:50.134Z,6716.00
2023-03-24T10:38:50.128Z,4688.00
2023-03-24T10:39:50.090Z,2924.00
2023-03-24T10:40:50.080Z,2060.00
2023-03-24T10:41:50.053Z,2492.00
2023-03-24T10:43:07.041Z,2696.00
2023-03-24T10:43:49.997Z,3088.00
2023-03-24T10:44:49.976Z,4208.00
2023-03-24T10:45:50.325Z,3592.00
2023-03-24T10:46:49.945Z,3348.00
2023-03-24T10:47:49.927Z,2688.00
2023-03-24T10:48:49.928Z,1264.00
2023-03-24T10:49:49.868Z,1004.00
2023-03-24T10:50:49.857Z,1172.00
2023-03-24T10:51:49.857Z,1964.00
2023-03-24T10:52:49.808Z,2436.00
2023-03-24T10:53:49.833Z,3212.00
2023-03-24T10:54:49.764Z,3472.00
2023-03-24T10:55:49.863Z,3924.00
2023-03-24T10:56:49.739Z,3516.00
2023-03-24T10:57:49.689Z,3204.00
2023-03-24T10:58:49.699Z,3716.00
2023-03-24T10:59:49.658Z,5112.00
2023-03-24T11:00:49.663Z,6084.00
2023-03-24T11:01:49.657Z,5988.00
2023-03-24T11:02:49.635Z,5492.00
2023-03-24T11:03:49.558Z,6740.00
2023-03-24T11:04:49.532Z,8472.00
2023-03-24T11:05:49.677Z,9636.00
2023-03-24T11:06:49.493Z,10672.00
2023-03-24T11:07:49.495Z,10144.00
2023-03-24T11:08:49.488Z,9248.00
2023-03-24T11:09:49.429Z,8500.00
2023-03-24T11:10:49.418Z,6544.00
2023-03-24T11:11:49.368Z,5564.00
2023-03-24T11:12:49.364Z,6004.00
2023-03-24T11:13:49.388Z,7424.00
2023-03-24T11:14:49.309Z,9892.00
2023-03-24T11:15:49.470Z,11332.00
2023-03-24T11:16:49.358Z,13016.00
2023-03-24T11:17:49.271Z,17792.00
2023-03-24T11:18:49.221Z,21312.00
2023-03-24T11:19:49.183Z,16792.00
2023-03-24T11:20:49.193Z,13524.00
2023-03-24T11:21:49.146Z,12872.00
2023-03-24T11:22:49.118Z,12768.00
2023-03-24T11:23:49.104Z,13404.00
2023-03-24T11:24:49.074Z,15024.00
2023-03-24T11:25:49.214Z,19616.00
2023-03-24T11:26:49.035Z,20928.00
2023-03-24T11:27:49.005Z,18144.00
2023-03-24T11:28:48.992Z,19648.00
2023-03-24T11:29:48.982Z,19200.00
2023-03-24T11:30:48.997Z,21184.00
2023-03-24T11:31:48.925Z,22176.00
2023-03-24T11:33:48.887Z,12380.00
2023-03-24T11:34:48.868Z,11124.00
2023-03-24T11:35:56.077Z,12388.00
2023-03-24T11:36:48.876Z,13364.00
2023-03-24T11:37:48.800Z,13996.00
2023-03-24T11:38:48.765Z,13824.00
2023-03-24T11:39:48.770Z,12076.00
2023-03-24T11:40:48.727Z,9740.00
2023-03-24T11:41:48.711Z,9836.00
2023-03-24T11:42:48.690Z,14568.00
2023-03-24T11:43:48.666Z,30048.00
2023-03-24T11:44:48.642Z,29856.00
2023-03-24T11:45:48.923Z,24384.00
2023-03-24T11:46:48.653Z,20576.00
2023-03-24T11:47:48.679Z,22272.00
2023-03-24T11:48:48.562Z,26144.00
2023-03-24T11:49:48.538Z,29408.00
2023-03-24T11:50:48.556Z,35072.00
2023-03-24T11:51:48.532Z,26112.00
2023-03-24T11:52:48.477Z,21152.00
2023-03-24T11:53:48.473Z,18208.00
2023-03-24T11:54:48.445Z,22464.00
2023-03-24T11:55:48.706Z,17068.00
2023-03-24T11:56:48.432Z,13836.00
2023-03-24T11:57:48.384Z,11168.00
2023-03-24T11:58:48.367Z,10048.00
2023-03-24T11:59:48.339Z,12036.00
2023-03-24T12:00:48.315Z,12084.00
2023-03-24T12:01:48.425Z,10280.00
2023-03-24T12:02:48.400Z,8704.00
2023-03-24T12:03:48.403Z,8472.00
2023-03-24T12:04:48.228Z,10968.00
2023-03-24T12:05:50.365Z,14688.00
2023-03-24T12:06:48.193Z,13088.00
2023-03-24T12:07:48.170Z,10108.00
2023-03-24T12:08:48.178Z,9152.00
2023-03-24T12:09:48.136Z,10276.00
2023-03-24T12:10:48.138Z,13536.00
2023-03-24T12:11:48.093Z,15456.00
2023-03-24T12:12:48.074Z,15244.00
2023-03-24T12:13:48.046Z,15076.00
2023-03-24T12:14:48.023Z,15140.00
2023-03-24T12:15:48.277Z,15040.00
2023-03-24T12:16:48.034Z,14540.00
2023-03-24T12:17:48.027Z,13620.00
2023-03-24T12:18:47.955Z,13196.00
2023-03-24T12:19:47.930Z,12396.00
2023-03-24T12:20:47.903Z,11448.00
2023-03-24T12:21:47.889Z,10464.00
2023-03-24T12:22:47.855Z,9924.00
2023-03-24T12:23:47.840Z,10580.00
2023-03-24T12:24:47.810Z,10744.00
2023-03-24T12:25:48.103Z,9796.00
2023-03-24T12:26:47.773Z,8516.00
2023-03-24T12:27:47.748Z,7916.00
2023-03-24T12:28:47.737Z,8604.00
2023-03-24T12:29:47.711Z,9116.00
2023-03-24T12:30:47.868Z,10164.00
2023-03-24T12:31:47.719Z,11384.00
2023-03-24T12:32:47.683Z,13596.00
2023-03-24T12:33:47.629Z,14660.00
2023-03-24T12:34:47.598Z,17204.00